Tiempo atmosférico en la estación meteorológica de Torrecilla De Los Angeles, Cáceres (462 m.)



Fecha
DESCASC
Temp. máxima en grados centígrados (hora)
DESCASC
Temp. mínima en grados centígrados (hora)
DESCASC
Temp. media en grados centígrados
DESCASC
Racha de viento máxima en m/sg (hora)
DESCASC
Velocidad máxima media en intervalos de 10 minutos(hora)
DESCASC
Precipitaciones diarias en mm
DESCASC
Precipitaciones de 00:00 a 06:00 en mm
DESCASC
Precipitaciones de 06:00 a 12:00 en mm
DESCASC
Precipitaciones de 12:00 a 18:00 en mm
DESCASC
Precipitaciones de 18:00 a 24:00 en mm
DESCASC
13-10-2019 22.7 (17:30) 13.2 (22:20) 18 8.61 (17:00) 5 (14:10) 0 0 0 0 0
12-10-2019 29.4 (17:10) 14.3 (09:00) 21.8 13.61 (17:30) 7.5 (16:30) 0 0 0 0 0
11-10-2019 29 (16:20) 11.6 (08:10) 20.3 8.89 (15:40) 5.28 (16:00) 0 0 0 0 0
10-10-2019 29.5 (17:10) 11.5 (00:00) 20.5 6.94 (17:10) 3.33 (08:30) 0 0 0 0 0
09-10-2019 29.7 (16:50) 16.4 (00:00) 23.1 13.89 (02:10) 7.22 (02:10) 0 0 0 0 0
08-10-2019 32.7 (16:50) 13 (00:00) 22.9 11.39 (21:20) 6.94 (22:00) 0 0 0 0 0
07-10-2019 33.8 (17:00) 13.3 (00:00) 23.5 7.22 (21:30) 3.61 (08:10) 0 0 0 0 0
06-10-2019 30.6 (17:00) 10.2 (00:00) 20.4 9.72 (20:50) 5 (19:00) 0 0 0 0 0
05-10-2019 28.8 (17:30) 12.4 (00:00) 20.6 6.67 (15:10) 3.61 (15:50) 0 0 0 0 0
04-10-2019 29.2 (17:10) 12.6 (00:00) 20.9 11.67 (00:20) 6.11 (00:20) 0 0 0 0 0
03-10-2019 29.2 (17:50) 8.8 (00:00) 19 12.5 (22:30) 6.67 (23:00) 0 0 0 0 0
02-10-2019 25.8 (17:30) 8.9 (00:00) 17.3 11.39 (04:10) 5.83 (16:00) 0 0 0 0 0
01-10-2019 25.9 (18:30) 13.7 (00:00) 19.8 12.78 (13:50) 6.94 (13:50) 0 0 0 0 0
30-09-2019 30.8 (16:50) 13.8 (00:00) 22.3 7.78 (00:10) 3.61 (00:10) 0 0 0 0 0
29-09-2019 31.2 (17:00) 10.9 (00:00) 21.1 9.72 (22:20) 5.56 (22:30) 0 0 0 0 0
28-09-2019 30 (17:50) 12.7 (00:00) 21.3 7.22 (16:10) 3.06 (08:50) 0 0 0 0 0
27-09-2019 29.1 (15:00) 11.4 (00:00) 20.3 11.39 (22:20) 5.83 (22:20) 0 0 0 0 0
26-09-2019 29 (16:40) 11.9 (00:00) 20.4 6.67 (23:10) 3.89 (22:50) 0 0 0 0 0
25-09-2019 25.8 (17:30) 10.2 (00:00) 18 12.78 (00:40) 7.22 (00:40) 0 0 0 0 0
24-09-2019 26.5 (17:00) 9.5 (00:00) 18 11.67 (23:59) 6.39 (23:20) 0 0 0 0 0
23-09-2019 24.9 (17:20) 9.6 (00:00) 17.3 5.83 (15:40) 3.61 (16:30) 0 0 0 0 0
22-09-2019 21.6 (17:10) 10.4 (00:00) 16 8.61 (04:10) 4.72 (04:30) 3 2.8 0.2 0 0
21-09-2019 17.5 (20:50) 14.9 (00:00) 16.2 9.17 (20:20) 5 (22:10) 35.4 0 10.4 5.4 19.6
20-09-2019 27.5 (15:30) 14.9 (00:00) 21.2 9.44 (14:00) 5.56 (16:40) 0 0 0 0 0
19-09-2019 31.1 (15:10) 15 (00:00) 23.1 6.94 (15:10) 3.61 (15:10) 0 0 0 0 0
18-09-2019 30.7 (16:50) 11.6 (00:00) 21.2 8.33 (16:00) 3.33 (03:40) 0 0 0 0 0
17-09-2019 31.7 (15:40) 16.5 (00:00) 24.1 12.22 (18:30) 6.39 (18:30) 0.6 0 0 0 0.6
16-09-2019 28.8 (16:20) 15.6 (00:00) 22.2 6.39 (16:20) 3.06 (15:50) 0 0 0 0 0

Gráficas

Temp. máximas Temp. mínimas Temp. medias Precipitaciones Rachas de viento máximas Velocidades máximas media en intervalos de 10 minutos

Datos horarios

Fecha y hora oficial Temperatura (ºC) Velocidad del viento (km/h) Dirección del viento Racha (km/h) Dirección de racha Precipitación (mm) Presión (hPa) Tendencia (hPa) Humedad (%)
2019-10-15 23:00:00 9.7 3 Nordeste 8 Noroeste 0 -- -- 86
2019-10-15 22:00:00 10 0 Calma 6 Norte 0 -- -- 85
2019-10-15 21:00:00 11 3 Noroeste 6 Noroeste 0 -- -- 80
2019-10-15 20:00:00 13.2 0 Calma 6 Noroeste 0 -- -- 72
2019-10-15 19:00:00 15.9 5 Sudoeste 18 Sur 0 -- -- 58
2019-10-15 18:00:00 16.9 5 Sur 21 Sudoeste 0 -- -- 53
2019-10-15 17:00:00 16.9 12 Sudoeste 25 Oeste 0 -- -- 51
2019-10-15 16:00:00 16.6 12 Sudoeste 26 Sudoeste 0 -- -- 54
2019-10-15 15:00:00 16.3 10 Sudoeste 19 Sur 0 -- -- 55
2019-10-15 14:00:00 16.4 10 Sur 18 Sur 0 -- -- 55
2019-10-15 13:00:00 16.4 5 Sur 15 Sur 0 -- -- 56
2019-10-15 12:00:00 15 7 Sur 12 Sur 0 -- -- 62
2019-10-15 11:00:00 12.4 3 Este 10 Este 0 -- -- 72
2019-10-15 10:00:00 8 4 Norte 9 Nordeste 0 -- -- 93
2019-10-15 09:00:00 4.1 0 Calma 4 Noroeste 0 -- -- 95
2019-10-15 08:00:00 4.2 3 Norte 6 Noroeste 0 -- -- 94
2019-10-15 07:00:00 4.4 2 Noroeste 5 Noroeste 0 -- -- 93
2019-10-15 06:00:00 4.7 0 Calma 8 Nordeste 0 -- -- 92
2019-10-15 05:00:00 5.1 2 Nordeste 8 Noroeste 0 -- -- 89
2019-10-15 04:00:00 6.7 8 Noroeste 12 Noroeste 0 -- -- 88
2019-10-15 03:00:00 9 8 Sudoeste 20 Sudoeste 0 -- -- 77
2019-10-15 02:00:00 9.3 11 Sur 39 Sudoeste 0 -- -- 75
2019-10-15 01:00:00 9.6 10 Sur 29 Sur 0 -- -- 73
2019-10-15 00:00:00 9 3 Sudeste 23 Sudoeste 0 -- -- 76
2019-10-14 23:00:00 10.2 6 Oeste 15 Noroeste 0 -- -- 70
2019-10-14 22:00:00 11 3 Noroeste 27 Oeste 0 -- -- 67
2019-10-14 21:00:00 11.1 9 Noroeste 19 Sudoeste 0 -- -- 70
2019-10-14 20:00:00 12.1 7 Noroeste 22 Noroeste 0.2 -- -- 69
2019-10-14 19:00:00 13.9 9 Oeste 30 Oeste 0 -- -- 68
2019-10-14 18:00:00 13.2 5 Noroeste 33 Noroeste 0.4 -- -- 74
2019-10-14 17:00:00 14.9 8 Sur 13 Sur 0 -- -- 86
2019-10-14 16:00:00 12.5 10 Sur 23 Sudoeste 3 -- -- 91
2019-10-14 15:00:00 12.7 8 Sudoeste 30 Sur 4.6 -- -- 94
2019-10-14 14:00:00 12.5 7 Sudoeste 19 Sudoeste 4 -- -- 92
2019-10-14 13:00:00 12.8 5 Oeste 24 Sur 0.4 -- -- 89
2019-10-14 12:00:00 13.6 13 Sudoeste 27 Sudoeste 0 -- -- 82
2019-10-14 11:00:00 13.1 10 Sur 26 Sur 0 -- -- 90
2019-10-14 10:00:00 12.7 5 Sur 22 Oeste 0 -- -- 93
2019-10-14 09:00:00 12.6 8 Sudoeste 22 Oeste 0 -- -- 90
2019-10-14 08:00:00 14 15 Sudoeste 27 Sur 2.2 -- -- 88
2019-10-14 07:00:00 14.2 15 Sudoeste 31 Sur 4 -- -- 90
2019-10-14 06:00:00 13.5 2 Sudoeste 7 Sudeste 0 -- -- 83
2019-10-14 05:00:00 13.9 2 Sudoeste 9 Oeste 0 -- -- 80
2019-10-14 04:00:00 13.5 3 Sur 9 Sudoeste 0 -- -- 78
2019-10-14 03:00:00 14.2 4 Sudoeste 9 Sudoeste 0 -- -- 77
2019-10-14 02:00:00 14.9 3 Sudoeste 22 Sudoeste 0 -- -- 72
2019-10-14 01:00:00 13.1 3 Nordeste 8 Norte 0 -- -- 80
2019-10-14 00:00:00 13.2 2 Noroeste 7 Nordeste 0 -- -- 79
2019-10-13 23:00:00 13.2 3 Noroeste 7 Noroeste 0 -- -- 80
2019-10-13 22:00:00 13.5 0 Calma 9 Noroeste 0 -- -- 77
2019-10-13 21:00:00 14.8 3 Nordeste 6 Noroeste 0 -- -- 72
2019-10-13 20:00:00 17.8 3 Noroeste 10 Sudoeste 0 -- -- 63
2019-10-13 19:00:00 21.8 8 Oeste 22 Sudoeste 0 -- -- 51
2019-10-13 18:00:00 22.6 13 Sudoeste 28 Sudoeste 0 -- -- 49
2019-10-13 17:00:00 22.3 17 Sudoeste 31 Sudoeste 0 -- -- 49
2019-10-13 16:00:00 20.3 12 Sur 26 Sudeste 0 -- -- 56
2019-10-13 15:00:00 20 15 Sur 28 Sur 0 -- -- 59
2019-10-13 14:00:00 20 15 Sur 28 Sur 0 -- -- 60
2019-10-13 13:00:00 18.3 14 Sur 24 Sudoeste 0 -- -- 68
2019-10-13 12:00:00 16.7 3 Noroeste 9 Noroeste 0 -- -- 76
2019-10-13 11:00:00 15.5 3 Noroeste 9 Sur 0 -- -- 83
2019-10-13 10:00:00 15.1 8 Sur 13 Sur 0 -- -- 81
2019-10-13 09:00:00 15.2 0 Calma 6 Sudeste 0 -- -- 82
2019-10-13 08:00:00 15.1 0 Calma 6 Sudoeste 0 -- -- 82
2019-10-13 07:00:00 15.1 4 Sur 8 Sudoeste 0 -- -- 81
2019-10-13 06:00:00 15.3 6 Sur 10 Sur 0 -- -- 81
2019-10-13 05:00:00 15.7 6 Sudoeste 15 Oeste 0 -- -- 79
2019-10-13 04:00:00 16.4 9 Sudoeste 17 Sudoeste 0 -- -- 74
2019-10-13 03:00:00 16.8 6 Sudoeste 12 Sur 0 -- -- 70
2019-10-13 02:00:00 16.8 6 Sur 12 Sur 0 -- -- 71
2019-10-13 01:00:00 17.2 3 Sudoeste 12 Oeste 0 -- -- 73
2019-10-13 00:00:00 18.7 4 Oeste 14 Sur 0 -- -- 71
2019-10-12 23:00:00 20.1 7 Sur 16 Sur 0 -- -- 70
2019-10-12 22:00:00 22.3 8 Sur 27 Sur 0 -- -- 60
2019-10-12 21:00:00 23.9 8 Sur 29 Sur 0 -- -- 42
2019-10-12 20:00:00 25.7 13 Sudoeste 36 Sur 0 -- -- 37
2019-10-12 19:00:00 27.3 20 Sur 46 Sudoeste 0 -- -- 34
2019-10-12 18:00:00 28.9 24 Sur 49 Sur 0 -- -- 29
2019-10-12 17:00:00 29.3 25 Sur 42 Sur 0 -- -- 29
2019-10-12 16:00:00 27.6 12 Sur 28 Sur 0 -- -- 35
2019-10-12 15:00:00 27.9 17 Sur 36 Sur 0 -- -- 36
2019-10-12 14:00:00 26.8 13 Sur 24 Sur 0 -- -- 38
2019-10-12 13:00:00 25.6 16 Sur 28 Sur 0 -- -- 43
2019-10-12 12:00:00 22.2 2 Sur 8 Sudeste 0 -- -- 55
2019-10-12 11:00:00 19 0 Calma 6 Nordeste 0 -- -- 71
2019-10-12 10:00:00 16 3 Norte 7 Noroeste 0 -- -- 82
2019-10-12 09:00:00 14.3 0 Calma 7 Noroeste 0 -- -- 81
2019-10-12 08:00:00 14.7 4 Noroeste 7 Noroeste 0 -- -- 81
2019-10-12 07:00:00 15.2 0 Calma 0 Calma 0 -- -- 78
2019-10-12 06:00:00 15.5 2 Noroeste 5 Este 0 -- -- 77
2019-10-12 05:00:00 15.5 3 Noroeste 6 Oeste 0 -- -- 75
2019-10-12 04:00:00 15.6 0 Calma -- -- 0 -- -- 74
2019-10-12 03:00:00 15.5 0 Calma -- -- 0 -- -- 73
2019-10-12 02:00:00 15.3 0 Calma 0 Calma 0 -- -- 72
2019-10-12 01:00:00 15.7 0 Calma 5 Nordeste 0 -- -- 71
2019-10-12 00:00:00 17 0 Calma -- -- 0 -- -- 66
2019-10-11 23:00:00 18.2 0 Calma 4 Noroeste 0 -- -- 62
2019-10-11 22:00:00 19.2 3 Noroeste 7 Noroeste 0 -- -- 60
2019-10-11 21:00:00 20.9 4 Noroeste 7 Sudoeste 0 -- -- 55
2019-10-11 20:00:00 23.7 5 Oeste 17 Sur 0 -- -- 48
2019-10-11 19:00:00 26.7 12 Sur 24 Sur 0 -- -- 41
2019-10-11 18:00:00 27.4 12 Sur 28 Sur 0 -- -- 40
2019-10-11 17:00:00 28.4 10 Sudeste 29 Sudeste 0 -- -- 39
2019-10-11 16:00:00 28.5 19 Sur 32 Sur 0 -- -- 40
2019-10-11 15:00:00 28.3 13 Sudeste 29 Sur 0 -- -- 40
2019-10-11 14:00:00 27.2 10 Sudoeste 26 Sur 0 -- -- 41
2019-10-11 13:00:00 24.5 3 Norte 8 Norte 0 -- -- 50
2019-10-11 12:00:00 24.1 7 Sur 14 Oeste 0 -- -- 51
2019-10-11 11:00:00 22.9 5 Oeste 11 Sudoeste 0 -- -- 56
2019-10-11 10:00:00 16.4 2 Nordeste 5 Sudeste 0 -- -- 70
2019-10-11 09:00:00 11.9 2 Oeste 8 Nordeste 0 -- -- 81
2019-10-11 08:00:00 11.9 2 Oeste 6 Noroeste 0 -- -- 79
2019-10-11 07:00:00 12.3 0 Calma 4 Este 0 -- -- 76
2019-10-11 06:00:00 13.1 2 Norte 5 Noroeste 0 -- -- 72
2019-10-11 05:00:00 13.4 3 Norte 5 Noroeste 0 -- -- 71
2019-10-11 04:00:00 14.3 3 Norte 8 Noroeste 0 -- -- 67
2019-10-11 03:00:00 14.2 4 Norte 10 Norte 0 -- -- 67
2019-10-11 02:00:00 15.1 5 Norte 13 Norte 0 -- -- 63
2019-10-11 01:00:00 15.7 2 Norte 9 Norte 0 -- -- 61
2019-10-11 00:00:00 15.9 3 Noroeste 9 Noroeste 0 -- -- 59
2019-10-10 23:00:00 16.4 5 Norte 8 Noroeste 0 -- -- 57
2019-10-10 22:00:00 16.5 3 Noroeste 8 Norte 0 -- -- 56
2019-10-10 21:00:00 18.6 4 Nordeste 6 Nordeste 0 -- -- 50
2019-10-10 20:00:00 21.6 2 Norte 10 Noroeste 0 -- -- 43
2019-10-10 19:00:00 28.1 3 Sur 10 Sudoeste 0 -- -- 30
2019-10-10 18:00:00 29.3 8 Sudoeste 25 Sudoeste 0 -- -- 26
2019-10-10 17:00:00 29.3 8 Sur 14 Sudoeste 0 -- -- 27
2019-10-10 16:00:00 28.8 6 Oeste 19 Sudeste 0 -- -- 28
2019-10-10 15:00:00 28 5 Este 17 Sudeste 0 -- -- 29
2019-10-10 14:00:00 26 5 Este 14 Este 0 -- -- 33
2019-10-10 13:00:00 24.2 8 Nordeste 20 Nordeste 0 -- -- 37
2019-10-10 12:00:00 22.1 11 Nordeste 21 Nordeste 0 -- -- 41
2019-10-10 11:00:00 19.4 9 Nordeste 24 Nordeste 0 -- -- 46
2019-10-10 10:00:00 16.3 8 Nordeste 18 Nordeste 0 -- -- 53
2019-10-10 09:00:00 14.1 9 Nordeste 19 Nordeste 0 -- -- 56
2019-10-10 08:00:00 11.5 5 Norte 9 Norte 0 -- -- 61
2019-10-10 07:00:00 13.1 6 Nordeste 11 Nordeste 0 -- -- 56
2019-10-10 06:00:00 14.3 6 Norte 12 Norte 0 -- -- 51
2019-10-10 05:00:00 13.9 6 Nordeste 16 Nordeste 0 -- -- 52
2019-10-10 04:00:00 14.7 7 Nordeste 17 Nordeste 0 -- -- 49
2019-10-10 03:00:00 15.1 10 Nordeste 17 Nordeste 0 -- -- 47
2019-10-10 02:00:00 14.6 5 Nordeste 10 Nordeste 0 -- -- 48
2019-10-10 01:00:00 14.5 0 Calma 8 Noroeste 0 -- -- 49
2019-10-10 00:00:00 16.4 2 Norte 8 Nordeste 0 -- -- 43
2019-10-09 23:00:00 19.3 7 Este 27 Noroeste 0 -- -- 38
2019-10-09 22:00:00 21.1 18 Noroeste 33 Noroeste 0 -- -- 36
2019-10-09 21:00:00 22.2 15 Noroeste 33 Noroeste 0 -- -- 34
2019-10-09 20:00:00 24.1 18 Noroeste 39 Noroeste 0 -- -- 32
2019-10-09 19:00:00 26.2 18 Noroeste 31 Noroeste 0 -- -- 30
2019-10-09 18:00:00 28.2 17 Noroeste 30 Noroeste 0 -- -- 30
2019-10-09 17:00:00 29.6 8 Nordeste 19 Nordeste 0 -- -- 28
2019-10-09 16:00:00 29.4 9 Noroeste 24 Noroeste 0 -- -- 30
2019-10-09 15:00:00 28.6 7 Norte 17 Noroeste 0 -- -- 24
2019-10-09 14:00:00 27.6 5 Sudeste 14 Norte 0 -- -- 30
2019-10-09 13:00:00 26.3 4 Sudeste 18 Nordeste 0 -- -- 32
2019-10-09 12:00:00 24.2 8 Nordeste 15 Nordeste 0 -- -- 35
2019-10-09 11:00:00 21.9 6 Este 29 Noroeste 0 -- -- 45
2019-10-09 10:00:00 17.9 12 Noroeste 41 Noroeste 0 -- -- 58
2019-10-09 09:00:00 16.5 4 Norte 18 Norte 0 -- -- 65
2019-10-09 08:00:00 18.4 15 Noroeste 36 Noroeste 0 -- -- 64
2019-10-09 07:00:00 19.1 17 Noroeste 47 Noroeste 0 -- -- 68
2019-10-09 06:00:00 19.2 8 Sudeste 20 Sudoeste 0 -- -- 69
2019-10-09 05:00:00 19.5 6 Nordeste 22 Nordeste 0 -- -- 67
2019-10-09 04:00:00 20.4 6 Nordeste 42 Noroeste 0 -- -- 65
2019-10-09 03:00:00 21.3 20 Noroeste 50 Noroeste 0 -- -- 63
2019-10-09 02:00:00 21.7 19 Noroeste 41 Oeste 0 -- -- 64
2019-10-09 01:00:00 23 8 Norte 31 Noroeste 0 -- -- 56
2019-10-09 00:00:00 23.8 12 Norte 28 Noroeste 0 -- -- 53
2019-10-08 23:00:00 24.3 15 Noroeste 39 Norte 0 -- -- 52
2019-10-08 22:00:00 25.6 25 Noroeste 41 Noroeste 0 -- -- 47
2019-10-08 21:00:00 26.7 24 Noroeste 39 Noroeste 0 -- -- 43
2019-10-08 20:00:00 25.1 3 Noroeste 9 Oeste 0 -- -- 40
2019-10-08 19:00:00 31.2 5 Sudoeste 17 Sur 0 -- -- 28
2019-10-08 18:00:00 32.5 6 Sudoeste 19 Sudoeste 0 -- -- 26
2019-10-08 17:00:00 32.7 11 Sudoeste 21 Sur 0 -- -- 26
2019-10-08 16:00:00 31.9 10 Sur 21 Sudeste 0 -- -- 27
2019-10-08 15:00:00 31.7 10 Sur 21 Sudoeste 0 -- -- 26
2019-10-08 14:00:00 30.8 9 Sur 19 Sur 0 -- -- 27
2019-10-08 13:00:00 29.7 7 Sur 14 Sur 0 -- -- 29
2019-10-08 12:00:00 27.4 3 Sudeste 18 Nordeste 0 -- -- 31
2019-10-08 11:00:00 23.6 7 Nordeste 17 Nordeste 0 -- -- 38
2019-10-08 10:00:00 19.1 7 Nordeste 15 Norte 0 -- -- 49
2019-10-08 09:00:00 13 2 Norte 5 Norte 0 -- -- 67
2019-10-08 08:00:00 13.4 0 Calma 6 Noroeste 0 -- -- 64
2019-10-08 07:00:00 13.4 3 Norte 8 Nordeste 0 -- -- 64
2019-10-08 06:00:00 14.2 3 Norte 7 Norte 0 -- -- 60
2019-10-08 05:00:00 16.1 3 Norte 11 Norte 0 -- -- 54
2019-10-08 04:00:00 16.3 6 Noroeste 12 Norte 0 -- -- 53
2019-10-08 03:00:00 16.8 9 Norte 13 Norte 0 -- -- 52
2019-10-08 02:00:00 17.1 0 Calma 7 Nordeste 0 -- -- 50
2019-10-08 01:00:00 19 3 Norte 12 Nordeste 0 -- -- 44
2019-10-08 00:00:00 19.7 0 Calma 13 Nordeste 0 -- -- 43
2019-10-07 23:00:00 20 2 Nordeste 12 Nordeste 0 -- -- 43
2019-10-07 22:00:00 24.4 7 Nordeste 26 Norte 0 -- -- 33
2019-10-07 21:00:00 25.2 10 Norte 21 Noroeste 0 -- -- 30
2019-10-07 20:00:00 27.7 6 Norte 25 Noroeste 0 -- -- 25
2019-10-07 19:00:00 30.1 12 Noroeste 23 Noroeste 0 -- -- 21
2019-10-07 18:00:00 32.1 9 Norte 23 Nordeste 0 -- -- 19
2019-10-07 17:00:00 33.8 9 Sudoeste 15 Sudoeste 0 -- -- 22
2019-10-07 16:00:00 32.8 6 Sur 17 Oeste 0 -- -- 22
2019-10-07 15:00:00 31.3 4 Nordeste 14 Sur 0 -- -- 19
2019-10-07 14:00:00 30.2 4 Oeste 14 Sudoeste 0 -- -- 19
2019-10-07 13:00:00 29.7 4 Sur 13 Sudoeste 0 -- -- 20
2019-10-07 12:00:00 27.4 8 Sur 14 Sudoeste 0 -- -- 28
2019-10-07 11:00:00 23.7 4 Nordeste 10 Nordeste 0 -- -- 36
2019-10-07 10:00:00 19.4 2 Norte 9 Este 0 -- -- 47
2019-10-07 09:00:00 16 4 Este 22 Nordeste 0 -- -- 58
2019-10-07 08:00:00 15.1 9 Nordeste 19 Nordeste 0 -- -- 62
2019-10-07 07:00:00 15 7 Norte 14 Norte 0 -- -- 63
2019-10-07 06:00:00 14.5 5 Norte 13 Nordeste 0 -- -- 64
2019-10-07 05:00:00 13.4 4 Norte 8 Noroeste 0 -- -- 68
2019-10-07 04:00:00 14.4 5 Noroeste 9 Norte 0 -- -- 64
2019-10-07 03:00:00 15 2 Nordeste 9 Nordeste 0 -- -- 60
2019-10-07 02:00:00 16.6 5 Nordeste 13 Noroeste 0 -- -- 54
2019-10-07 01:00:00 17.4 3 Norte 8 Noroeste 0 -- -- 50
2019-10-07 00:00:00 19.9 2 Este 19 Norte 0 -- -- 39
2019-10-06 23:00:00 23.3 11 Norte 24 Norte 0 -- -- 30
2019-10-06 22:00:00 21.8 9 Nordeste 34 Norte 0 -- -- 32
2019-10-06 21:00:00 24.2 11 Nordeste 35 Norte 0 -- -- 30
2019-10-06 20:00:00 25.3 11 Norte 28 Noroeste 0 -- -- 29
2019-10-06 19:00:00 27.4 18 Noroeste 29 Noroeste 0 -- -- 26
2019-10-06 18:00:00 29.7 11 Noroeste 21 Noroeste 0 -- -- 24
2019-10-06 17:00:00 30.6 6 Sur 19 Noroeste 0 -- -- 26
2019-10-06 16:00:00 29.7 8 Sudoeste 17 Oeste 0 -- -- 29
2019-10-06 15:00:00 28 6 Nordeste 15 Oeste 0 -- -- 30
2019-10-06 14:00:00 27.1 7 Sudoeste 19 Oeste 0 -- -- 34
2019-10-06 13:00:00 25.3 5 Nordeste 21 Sudeste 0 -- -- 39
2019-10-06 12:00:00 24.1 8 Este 17 Este 0 -- -- 42
2019-10-06 11:00:00 20.3 8 Nordeste 21 Nordeste 0 -- -- 52
2019-10-06 10:00:00 15.9 8 Nordeste 15 Nordeste 0 -- -- 67
2019-10-06 09:00:00 10.8 5 Norte 15 Norte 0 -- -- 81
2019-10-06 08:00:00 10.3 6 Norte 12 Norte 0 -- -- 82
2019-10-06 07:00:00 11.9 4 Nordeste 17 Nordeste 0 -- -- 74
2019-10-06 06:00:00 12.7 5 Nordeste 15 Nordeste 0 -- -- 73
2019-10-06 05:00:00 12.5 7 Norte 10 Norte 0 -- -- 73
2019-10-06 04:00:00 13 4 Norte 14 Nordeste 0 -- -- 67
2019-10-06 03:00:00 13.1 6 Noroeste 9 Noroeste 0 -- -- 68
2019-10-06 02:00:00 14.5 5 Noroeste 12 Nordeste 0 -- -- 64
2019-10-06 01:00:00 18.5 3 Este 19 Este 0 -- -- 53
2019-10-06 00:00:00 19.7 4 Norte 19 Norte 0 -- -- 46
2019-10-05 23:00:00 18.8 8 Nordeste 16 Noroeste 0 -- -- 42
2019-10-05 22:00:00 20.1 6 Nordeste 19 Norte 0 -- -- 39
2019-10-05 21:00:00 21.4 6 Nordeste 15 Este 0 -- -- 32
2019-10-05 20:00:00 23.5 8 Noroeste 16 Norte 0 -- -- 39
2019-10-05 19:00:00 27.6 7 Noroeste 20 Sudoeste 0 -- -- 37
2019-10-05 18:00:00 28.6 9 Sudoeste 24 Oeste 0 -- -- 38
2019-10-05 17:00:00 28.5 13 Sur 22 Sur 0 -- -- 41
2019-10-05 16:00:00 28.2 10 Sudoeste 24 Sur 0 -- -- 41
2019-10-05 15:00:00 27.2 11 Sur 22 Sur 0 -- -- 42
2019-10-05 14:00:00 26.9 9 Sur 21 Sur 0 -- -- 43
2019-10-05 13:00:00 25.3 9 Sudoeste 15 Sudeste 0 -- -- 47
2019-10-05 12:00:00 23.3 4 Sudoeste 8 Este 0 -- -- 53
2019-10-05 11:00:00 20.5 3 Norte 16 Nordeste 0 -- -- 59
2019-10-05 10:00:00 17 6 Este 14 Norte 0 -- -- 72
2019-10-05 09:00:00 13.1 7 Nordeste 17 Norte 0 -- -- 86
2019-10-05 08:00:00 12.4 6 Norte 12 Nordeste 0 -- -- 87
2019-10-05 07:00:00 13.1 7 Norte 13 Norte 0 -- -- 85
2019-10-05 06:00:00 13.2 8 Norte 13 Norte 0 -- -- 85
2019-10-05 05:00:00 13.4 6 Norte 10 Norte 0 -- -- 84
2019-10-05 04:00:00 13.9 5 Norte 9 Norte 0 -- -- 82
2019-10-05 03:00:00 14.8 5 Noroeste 9 Noroeste 0 -- -- 79
2019-10-05 02:00:00 15 5 Norte 14 Norte 0 -- -- 78
2019-10-05 01:00:00 15.5 5 Noroeste 8 Noroeste 0 -- -- 76
2019-10-05 00:00:00 15.9 4 Noroeste 8 Norte 0 -- -- 73
2019-10-04 23:00:00 17.2 4 Norte 8 Norte 0 -- -- 69
2019-10-04 22:00:00 17.6 3 Norte 8 Noroeste 0 -- -- 66
2019-10-04 21:00:00 20 0 Calma 9 Oeste 0 -- -- 57
2019-10-04 20:00:00 23.6 6 Noroeste 17 Sudoeste 0 -- -- 50
2019-10-04 19:00:00 27.8 12 Sudoeste 18 Sudoeste 0 -- -- 40
2019-10-04 18:00:00 28.6 9 Sudoeste 19 Sur 0 -- -- 38
2019-10-04 17:00:00 28.9 9 Sur 20 Sur 0 -- -- 38
2019-10-04 16:00:00 28.8 11 Sur 21 Sudoeste 0 -- -- 39
2019-10-04 15:00:00 28 9 Sudoeste 17 Sur 0 -- -- 39
2019-10-04 14:00:00 26.9 7 Sur 18 Sur 0 -- -- 39
2019-10-04 13:00:00 25.8 7 Sur 13 Sudeste 0 -- -- 47
2019-10-04 12:00:00 24.1 5 Nordeste 13 Este 0 -- -- 53
2019-10-04 11:00:00 22.1 4 Sudeste 8 Nordeste 0 -- -- 58
2019-10-04 10:00:00 17.7 3 Nordeste 11 Este 0 -- -- 73
2019-10-04 09:00:00 12.8 4 Norte 11 Nordeste 0 -- -- 87
2019-10-04 08:00:00 13.1 5 Norte 13 Norte 0 -- -- 85
2019-10-04 07:00:00 13.2 6 Norte 10 Noroeste 0 -- -- 86
2019-10-04 06:00:00 13 3 Noroeste 9 Norte 0 -- -- 85
2019-10-04 05:00:00 13.6 3 Noroeste 10 Nordeste 0 -- -- 82
2019-10-04 04:00:00 14.9 5 Norte 11 Nordeste 0 -- -- 78
2019-10-04 03:00:00 15.4 3 Nordeste 10 Nordeste 0 -- -- 75
2019-10-04 02:00:00 17.8 5 Nordeste 28 Noroeste 0 -- -- 64
2019-10-04 01:00:00 20.1 19 Noroeste 42 Noroeste 0 -- -- 61
2019-10-04 00:00:00 21 23 Noroeste 40 Norte 0 -- -- 58
2019-10-03 23:00:00 21.4 24 Norte 45 Noroeste 0 -- -- 56
2019-10-03 22:00:00 18.1 5 Nordeste 15 Norte 0 -- -- 49
2019-10-03 21:00:00 18.4 4 Noroeste 9 Noroeste 0 -- -- 45
2019-10-03 20:00:00 22.7 9 Noroeste 12 Noroeste 0 -- -- 36
2019-10-03 19:00:00 28.2 5 Noroeste 13 Noroeste 0 -- -- 28
2019-10-03 18:00:00 29.1 8 Noroeste 20 Noroeste 0 -- -- 22
2019-10-03 17:00:00 28.8 12 Noroeste 23 Norte 0 -- -- 23
2019-10-03 16:00:00 28.5 9 Noroeste 26 Norte 0 -- -- 26
2019-10-03 15:00:00 28.4 8 Noroeste 19 Noroeste 0 -- -- 24
2019-10-03 14:00:00 26.9 10 Sudeste 18 Sudeste 0 -- -- 30
2019-10-03 13:00:00 25.2 5 Este 12 Este 0 -- -- 32
2019-10-03 12:00:00 22.4 6 Nordeste 13 Nordeste 0 -- -- 40
2019-10-03 11:00:00 18.6 7 Nordeste 17 Norte 0 -- -- 47
2019-10-03 10:00:00 15.2 8 Nordeste 15 Nordeste 0 -- -- 56
2019-10-03 09:00:00 9.6 7 Norte 14 Nordeste 0 -- -- 74
2019-10-03 08:00:00 9.5 3 Noroeste 9 Norte 0 -- -- 74
2019-10-03 07:00:00 9.4 4 Nordeste 6 Nordeste 0 -- -- 74
2019-10-03 06:00:00 9.6 2 Norte 9 Noroeste 0 -- -- 72
2019-10-03 05:00:00 11.1 5 Noroeste 8 Noroeste 0 -- -- 66
2019-10-03 04:00:00 11.5 4 Noroeste 10 Noroeste 0 -- -- 65
2019-10-03 03:00:00 11.1 4 Noroeste 14 Norte 0 -- -- 68
2019-10-03 02:00:00 11.9 5 Norte 13 Nordeste 0 -- -- 65
2019-10-03 01:00:00 11.2 0 Calma 5 Norte 0 -- -- 69
2019-10-03 00:00:00 12.1 3 Norte 6 Nordeste 0 -- -- 66
2019-10-02 23:00:00 13 3 Norte 8 Norte 0 -- -- 62
2019-10-02 22:00:00 13.7 4 Nordeste 11 Norte 0 -- -- 61
2019-10-02 21:00:00 16.6 0 Calma 12 Noroeste 0 -- -- 52
2019-10-02 20:00:00 20.6 5 Noroeste 15 Norte 0 -- -- 42
2019-10-02 19:00:00 24.3 8 Norte 21 Norte 0 -- -- 34
2019-10-02 18:00:00 25.4 10 Norte 28 Noroeste 0 -- -- 31
2019-10-02 17:00:00 25.4 18 Noroeste 33 Noroeste 0 -- -- 29
2019-10-02 16:00:00 24.9 21 Noroeste 33 Oeste 0 -- -- 32
2019-10-02 15:00:00 24.4 13 Norte 28 Noroeste 0 -- -- 34
2019-10-02 14:00:00 22.8 10 Noroeste 24 Oeste 0 -- -- 38
2019-10-02 13:00:00 21.4 8 Noroeste 25 Noroeste 0 -- -- 44
2019-10-02 12:00:00 19.5 15 Noroeste 32 Noroeste 0 -- -- 48
2019-10-02 11:00:00 17.4 17 Noroeste 35 Noroeste 0 -- -- 55
2019-10-02 10:00:00 15 6 Nordeste 16 Nordeste 0 -- -- 65
2019-10-02 09:00:00 8.9 5 Nordeste 11 Este 0 -- -- 85
2019-10-02 08:00:00 10.3 0 Calma 19 Norte 0 -- -- 80
2019-10-02 07:00:00 12.8 4 Norte 19 Noroeste 0 -- -- 73
2019-10-02 06:00:00 14.4 11 Norte 35 Noroeste 0 -- -- 67
2019-10-02 05:00:00 14.7 17 Noroeste 41 Noroeste 0 -- -- 67
2019-10-02 04:00:00 14.2 13 Norte 40 Norte 0 -- -- 69
2019-10-02 03:00:00 16.1 14 Noroeste 36 Norte 0 -- -- 62
2019-10-02 02:00:00 17 19 Noroeste 37 Noroeste 0 -- -- 60
2019-10-02 01:00:00 17.5 12 Noroeste 40 Noroeste 0 -- -- 60
2019-10-02 00:00:00 18.1 14 Norte 36 Norte 0 -- -- 63
2019-10-01 23:00:00 19 10 Norte 39 Nordeste 0 -- -- 56
2019-10-01 22:00:00 20.3 12 Noroeste 36 Oeste 0 -- -- 49
2019-10-01 21:00:00 20.1 9 Oeste 19 Sudoeste 0 -- -- 48
2019-10-01 20:00:00 22.4 6 Noroeste 24 Noroeste 0 -- -- 43
2019-10-01 19:00:00 25.1 10 Noroeste 30 Noroeste 0 -- -- 38
2019-10-01 18:00:00 25.8 14 Noroeste 35 Norte 0 -- -- 37
2019-10-01 17:00:00 25.6 17 Noroeste 30 Oeste 0 -- -- 39
2019-10-01 16:00:00 24.2 15 Norte 34 Norte 0 -- -- 44
2019-10-01 15:00:00 23.9 22 Noroeste 39 Noroeste 0 -- -- 47
2019-10-01 14:00:00 23.8 23 Noroeste 46 Noroeste 0 -- -- 50
2019-10-01 13:00:00 21.8 18 Noroeste 44 Norte 0 -- -- 55
2019-10-01 12:00:00 21.7 12 Norte 37 Norte 0 -- -- 55
2019-10-01 11:00:00 19.4 12 Norte 34 Noroeste 0 -- -- 60
2019-10-01 10:00:00 18.3 15 Norte 42 Norte 0 -- -- 65
2019-10-01 09:00:00 16.9 9 Noroeste 42 Noroeste 0 -- -- 71
2019-10-01 08:00:00 16.7 11 Nordeste 37 Noroeste 0 -- -- 74
2019-10-01 07:00:00 15.2 3 Nordeste 11 Nordeste 0 -- -- 76
2019-10-01 06:00:00 14.5 2 Norte 12 Nordeste 0 -- -- 73
2019-10-01 05:00:00 13.9 2 Este 14 Noroeste 0 -- -- 68
2019-10-01 04:00:00 14.5 4 Noroeste 8 Nordeste 0 -- -- 69
2019-10-01 03:00:00 14.4 0 Calma 6 Noroeste 0 -- -- 68
2019-10-01 02:00:00 15.1 4 Norte 8 Norte 0 -- -- 64
2019-10-01 01:00:00 14.9 3 Norte 9 Noroeste 0 -- -- 61
2019-10-01 00:00:00 15.5 3 Nordeste 8 Noroeste 0 -- -- 58
2019-09-30 23:00:00 16.5 3 Noroeste 9 Noroeste 0 -- -- 54
2019-09-30 22:00:00 18.4 5 Nordeste 10 Noroeste 0 -- -- 48
2019-09-30 21:00:00 19.5 3 Norte 10 Noroeste 0 -- -- 46
2019-09-30 20:00:00 23.2 3 Nordeste 10 Noroeste 0 -- -- 38
2019-09-30 19:00:00 29.5 6 Sudoeste 18 Sudoeste 0 -- -- 26
2019-09-30 18:00:00 30.5 10 Oeste 22 Oeste 0 -- -- 23
2019-09-30 17:00:00 30.8 8 Sudoeste 18 Sudoeste 0 -- -- 26
2019-09-30 16:00:00 30.4 12 Sur 18 Sudoeste 0 -- -- 26
2019-09-30 15:00:00 30 9 Sur 18 Sudoeste 0 -- -- 27
2019-09-30 14:00:00 29.2 8 Sur 16 Sudoeste 0 -- -- 30
2019-09-30 13:00:00 27.6 6 Sur 16 Sudeste 0 -- -- 39
2019-09-30 12:00:00 26 8 Sur 14 Sur 0 -- -- 46
2019-09-30 11:00:00 22.4 9 Nordeste 17 Nordeste 0 -- -- 54
2019-09-30 10:00:00 18.9 11 Nordeste 18 Nordeste 0 -- -- 62
2019-09-30 09:00:00 14.2 6 Nordeste 15 Norte 0 -- -- 78
2019-09-30 08:00:00 14.6 7 Nordeste 12 Nordeste 0 -- -- 76
2019-09-30 07:00:00 14.2 6 Norte 14 Nordeste 0 -- -- 75
2019-09-30 06:00:00 15 7 Nordeste 12 Nordeste 0 -- -- 73
2019-09-30 05:00:00 15.5 5 Nordeste 13 Nordeste 0 -- -- 70
2019-09-30 04:00:00 16 7 Norte 14 Norte 0 -- -- 68
2019-09-30 03:00:00 16.2 5 Norte 12 Nordeste 0 -- -- 67
2019-09-30 02:00:00 17 0 Calma -- -- 0 -- -- 63
2019-09-30 01:00:00 20.1 0 Calma 28 Noroeste 0 -- -- 53
2019-09-30 00:00:00 22.4 15 Noroeste 32 Noroeste 0 -- -- 47
2019-09-29 23:00:00 23.8 16 Norte 35 Noroeste 0 -- -- 42
2019-09-29 22:00:00 17.7 3 Nordeste 8 Este 0 -- -- 52
2019-09-29 21:00:00 19.5 3 Norte 10 Noroeste 0 -- -- 45
2019-09-29 20:00:00 22.9 4 Noroeste 16 Sudeste 0 -- -- 37
2019-09-29 19:00:00 29.5 9 Sur 16 Sur 0 -- -- 29
2019-09-29 18:00:00 30.4 9 Sudeste 18 Sudeste 0 -- -- 28
2019-09-29 17:00:00 31.2 5 Sudoeste 16 Sudeste 0 -- -- 27
2019-09-29 16:00:00 30.8 10 Sudoeste 18 Sur 0 -- -- 26
2019-09-29 15:00:00 30.2 8 Sur 20 Sur 0 -- -- 26
2019-09-29 14:00:00 29.1 7 Sur 18 Sur 0 -- -- 28
2019-09-29 13:00:00 27.2 9 Sur 16 Sur 0 -- -- 33
2019-09-29 12:00:00 25.8 7 Sur 14 Sur 0 -- -- 34
2019-09-29 11:00:00 21.3 9 Nordeste 17 Nordeste 0 -- -- 43
2019-09-29 10:00:00 17.7 4 Nordeste 15 Norte 0 -- -- 53
2019-09-29 09:00:00 11.6 4 Nordeste 13 Norte 0 -- -- 71
2019-09-29 08:00:00 11.2 5 Norte 14 Nordeste 0 -- -- 71
2019-09-29 07:00:00 11.3 6 Norte 13 Nordeste 0 -- -- 72
2019-09-29 06:00:00 11.3 5 Norte 10 Norte 0 -- -- 71
2019-09-29 05:00:00 12.2 4 Norte 12 Norte 0 -- -- 66
2019-09-29 04:00:00 12.6 5 Norte 14 Norte 0 -- -- 63
2019-09-29 03:00:00 12.8 5 Norte 10 Norte 0 -- -- 62
2019-09-29 02:00:00 13.6 4 Norte 9 Norte 0 -- -- 62
2019-09-29 01:00:00 14.3 3 Norte 10 Noroeste 0 -- -- 57
2019-09-29 00:00:00 15.4 7 Norte 12 Norte 0 -- -- 54
2019-09-28 23:00:00 15.1 5 Norte 10 Noroeste 0 -- -- 54
2019-09-28 22:00:00 16 3 Noroeste 7 Norte 0 -- -- 53
2019-09-28 21:00:00 18.1 3 Norte 10 Norte 0 -- -- 49
2019-09-28 20:00:00 21.7 0 Calma 10 Oeste 0 -- -- 40
2019-09-28 19:00:00 28.9 5 Oeste 14 Sudoeste 0 -- -- 26
2019-09-28 18:00:00 29.7 8 Sudoeste 17 Sudoeste 0 -- -- 27
2019-09-28 17:00:00 29.6 8 Sudoeste 26 Sur 0 -- -- 26
2019-09-28 16:00:00 29.5 9 Sudoeste 22 Sudoeste 0 -- -- 29
2019-09-28 15:00:00 28.9 6 Sur 18 Sudoeste 0 -- -- 28
2019-09-28 14:00:00 27 8 Oeste 17 Sur 0 -- -- 34
2019-09-28 13:00:00 26.2 5 Sudoeste 15 Sudoeste 0 -- -- 37
2019-09-28 12:00:00 23.5 6 Este 15 Nordeste 0 -- -- 46
2019-09-28 11:00:00 20.5 10 Nordeste 19 Nordeste 0 -- -- 59
2019-09-28 10:00:00 17.4 9 Nordeste 17 Nordeste 0 -- -- 68
2019-09-28 09:00:00 13 10 Nordeste 17 Nordeste 0 -- -- 83
2019-09-28 08:00:00 12.9 8 Nordeste 13 Nordeste 0 -- -- 82
2019-09-28 07:00:00 13.3 8 Nordeste 14 Nordeste 0 -- -- 82
2019-09-28 06:00:00 13.4 6 Nordeste 16 Nordeste 0 -- -- 83
2019-09-28 05:00:00 13.7 8 Norte 17 Nordeste 0 -- -- 81
2019-09-28 04:00:00 14 4 Norte 13 Nordeste 0 -- -- 78
2019-09-28 03:00:00 14.4 6 Norte 14 Nordeste 0 -- -- 77
2019-09-28 02:00:00 15.2 6 Nordeste 12 Norte 0 -- -- 76
2019-09-28 01:00:00 16.2 0 Calma 8 Este 0 -- -- 70
2019-09-28 00:00:00 19.3 0 Calma 28 Noroeste 0 -- -- 60
2019-09-27 23:00:00 20.6 15 Noroeste 41 Noroeste 0 -- -- 58
2019-09-27 22:00:00 21.8 18 Noroeste 34 Noroeste 0 -- -- 54
2019-09-27 21:00:00 19.5 6 Noroeste 12 Noroeste 0 -- -- 53
2019-09-27 20:00:00 23.3 6 Noroeste 12 Noroeste 0 -- -- 42
2019-09-27 19:00:00 27.2 9 Norte 23 Norte 0 -- -- 31
2019-09-27 18:00:00 28.3 6 Norte 30 Norte 0 -- -- 28
2019-09-27 17:00:00 28.5 13 Norte 23 Norte 0 -- -- 27
2019-09-27 16:00:00 28.9 11 Noroeste 22 Noroeste 0 -- -- 23
2019-09-27 15:00:00 29.1 9 Oeste 21 Noroeste 0 -- -- 22
2019-09-27 14:00:00 28.1 9 Noroeste 25 Noroeste 0 -- -- 24
2019-09-27 13:00:00 27 12 Noroeste 25 Norte 0 -- -- 30
2019-09-27 12:00:00 24.9 4 Nordeste 17 Nordeste 0 -- -- 36
2019-09-27 11:00:00 21.1 7 Este 17 Nordeste 0 -- -- 49
2019-09-27 10:00:00 17.3 6 Nordeste 13 Nordeste 0 -- -- 60
2019-09-27 09:00:00 11.9 4 Nordeste 10 Noroeste 0 -- -- 76
2019-09-27 08:00:00 11.9 6 Norte 14 Nordeste 0 -- -- 74
2019-09-27 07:00:00 13.1 9 Norte 14 Nordeste 0 -- -- 69
2019-09-27 06:00:00 13.1 4 Norte 14 Norte 0 -- -- 70
2019-09-27 05:00:00 14.3 6 Norte 15 Norte 0 -- -- 65
2019-09-27 04:00:00 14.8 3 Norte 11 Norte 0 -- -- 63
2019-09-27 03:00:00 14.2 4 Noroeste 7 Norte 0 -- -- 65
2019-09-27 02:00:00 14.8 2 Norte 7 Noroeste 0 -- -- 62
2019-09-27 01:00:00 16 2 Norte 5 Oeste 0 -- -- 60
2019-09-27 00:00:00 19.3 2 Sudoeste 24 Noroeste 0 -- -- 49
2019-09-26 23:00:00 21.9 14 Noroeste 24 Noroeste 0 -- -- 39
2019-09-26 22:00:00 16.9 2 Norte 9 Nordeste 0 -- -- 62
2019-09-26 21:00:00 20.1 0 Calma 9 Oeste 0 -- -- 54
2019-09-26 20:00:00 23 4 Noroeste 13 Sudeste 0 -- -- 49
2019-09-26 19:00:00 28.5 6 Sudoeste 16 Sudoeste 0 -- -- 34
2019-09-26 18:00:00 28.9 9 Sudoeste 19 Oeste 0 -- -- 33
2019-09-26 17:00:00 28.9 9 Sur 20 Sur 0 -- -- 32
2019-09-26 16:00:00 28.5 8 Sur 17 Sur 0 -- -- 32
2019-09-26 15:00:00 27.7 9 Sur 19 Sur 0 -- -- 37
2019-09-26 14:00:00 26.5 8 Sudoeste 18 Sur 0 -- -- 39
2019-09-26 13:00:00 25.7 6 Sur 13 Sur 0 -- -- 43
2019-09-26 12:00:00 23.1 0 Calma 13 Este 0 -- -- 47
2019-09-26 11:00:00 20.8 6 Nordeste 18 Nordeste 0 -- -- 56
2019-09-26 10:00:00 17.6 7 Nordeste 14 Nordeste 0 -- -- 67
2019-09-26 09:00:00 12.1 2 Norte 8 Norte 0 -- -- 84
2019-09-26 08:00:00 12.6 5 Norte 14 Nordeste 0 -- -- 81
2019-09-26 07:00:00 13.1 6 Nordeste 13 Norte 0 -- -- 80
2019-09-26 06:00:00 13.4 5 Nordeste 14 Este 0 -- -- 78
2019-09-26 05:00:00 13.8 5 Norte 14 Norte 0 -- -- 77
2019-09-26 04:00:00 13.5 3 Norte 8 Norte 0 -- -- 77
2019-09-26 03:00:00 14 3 Norte 8 Norte 0 -- -- 75
2019-09-26 02:00:00 14.9 3 Norte 9 Nordeste 0 -- -- 71
2019-09-26 01:00:00 16.3 2 Noroeste 14 Este 0 -- -- 65
2019-09-26 00:00:00 18.5 4 Nordeste 22 Noroeste 0 -- -- 57
2019-09-25 23:00:00 19.8 9 Norte 27 Noroeste 0 -- -- 53
2019-09-25 22:00:00 20.8 13 Noroeste 28 Noroeste 0 -- -- 47
2019-09-25 21:00:00 20.9 8 Noroeste 21 Noroeste 0 -- -- 47
2019-09-25 20:00:00 22.1 10 Noroeste 29 Noroeste 0 -- -- 44
2019-09-25 19:00:00 24.2 15 Noroeste 30 Noroeste 0 -- -- 38
2019-09-25 18:00:00 25.4 13 Noroeste 25 Noroeste 0 -- -- 36
2019-09-25 17:00:00 25.5 12 Noroeste 28 Noroeste 0 -- -- 36
2019-09-25 16:00:00 24.7 15 Noroeste 31 Noroeste 0 -- -- 38
2019-09-25 15:00:00 24.2 14 Noroeste 25 Noroeste 0 -- -- 40
2019-09-25 14:00:00 22.8 4 Nordeste 15 Nordeste 0 -- -- 43
2019-09-25 13:00:00 21.4 5 Norte 23 Noroeste 0 -- -- 47
2019-09-25 12:00:00 19.6 12 Norte 26 Norte 0 -- -- 53
2019-09-25 11:00:00 19 12 Norte 28 Noroeste 0 -- -- 54
2019-09-25 10:00:00 17 13 Norte 26 Norte 0 -- -- 58
2019-09-25 09:00:00 11.1 4 Nordeste 10 Este 0 -- -- 84
2019-09-25 08:00:00 10.2 2 Oeste 6 Este 0 -- -- 86
2019-09-25 07:00:00 12.2 0 Calma 12 Norte 0 -- -- 79
2019-09-25 06:00:00 14.2 7 Norte 20 Noroeste 0 -- -- 71
2019-09-25 05:00:00 14.9 6 Norte 34 Norte 0 -- -- 72
2019-09-25 04:00:00 15.7 18 Norte 36 Norte 0 -- -- 70
2019-09-25 03:00:00 16 10 Norte 28 Noroeste 0 -- -- 72
2019-09-25 02:00:00 16.5 6 Este 36 Noroeste 0 -- -- 70
2019-09-25 01:00:00 17.5 18 Noroeste 46 Oeste 0 -- -- 62
2019-09-25 00:00:00 18.1 19 Noroeste 42 Noroeste 0 -- -- 59
2019-09-24 23:00:00 18.3 21 Noroeste 39 Noroeste 0 -- -- 61
2019-09-24 22:00:00 19.4 19 Noroeste 38 Noroeste 0 -- -- 59
2019-09-24 21:00:00 20.6 18 Noroeste 33 Noroeste 0 -- -- 59
2019-09-24 20:00:00 22.9 9 Sudoeste 23 Sudoeste 0 -- -- 58
2019-09-24 19:00:00 24.1 13 Sudoeste 26 Sudoeste 0 -- -- 59
2019-09-24 18:00:00 24.7 17 Sudoeste 27 Oeste 0 -- -- 59
2019-09-24 17:00:00 26.5 14 Sudoeste 30 Sudoeste 0 -- -- 52
2019-09-24 16:00:00 24.8 13 Sur 25 Sur 0 -- -- 55
2019-09-24 15:00:00 23.5 12 Sudoeste 27 Sudoeste 0 -- -- 55
2019-09-24 14:00:00 24 13 Sur 21 Sur 0 -- -- 52
2019-09-24 13:00:00 22.7 9 Sur 15 Sudeste 0 -- -- 55
2019-09-24 12:00:00 19.8 6 Sur 14 Sur 0 -- -- 62
2019-09-24 11:00:00 18.6 9 Sur 13 Sur 0 -- -- 65
2019-09-24 10:00:00 15.4 2 Nordeste 6 Norte 0 -- -- 78
2019-09-24 09:00:00 10.1 2 Nordeste 5 Nordeste 0 -- -- 94
2019-09-24 08:00:00 9.5 0 Calma 5 Nordeste 0 -- -- 92
2019-09-24 07:00:00 9.8 3 Nordeste 6 Oeste 0 -- -- 92
2019-09-24 06:00:00 10 2 Norte 6 Norte 0 -- -- 91
2019-09-24 05:00:00 10.4 2 Norte 6 Nordeste 0 -- -- 89
2019-09-24 04:00:00 10.9 2 Norte 6 Nordeste 0 -- -- 88
2019-09-24 03:00:00 11.2 3 Norte 5 Nordeste 0 -- -- 86
2019-09-24 02:00:00 11.8 0 Calma 5 Noroeste 0 -- -- 84
2019-09-24 01:00:00 12.2 2 Norte 6 Nordeste 0 -- -- 81
2019-09-24 00:00:00 13.1 3 Norte 7 Norte 0 -- -- 77
2019-09-23 23:00:00 14 0 Calma 6 Nordeste 0 -- -- 70
2019-09-23 22:00:00 15.4 0 Calma 7 Noroeste 0 -- -- 70
2019-09-23 21:00:00 18 2 Norte 9 Norte 0 -- -- 62
2019-09-23 20:00:00 21.4 0 Calma 16 Sudoeste 0 -- -- 53
2019-09-23 19:00:00 24.5 8 Sudoeste 18 Oeste 0 -- -- 42
2019-09-23 18:00:00 24.6 8 Sur 15 Sudoeste 0 -- -- 37
2019-09-23 17:00:00 24.7 8 Sur 20 Sur 0 -- -- 38
2019-09-23 16:00:00 24.3 12 Sur 21 Sudoeste 0 -- -- 40
2019-09-23 15:00:00 23.7 9 Sur 19 Sur 0 -- -- 40
2019-09-23 14:00:00 22.7 10 Sur 18 Sur 0 -- -- 47
2019-09-23 13:00:00 20.8 8 Sudoeste 15 Sudoeste 0 -- -- 51
2019-09-23 12:00:00 20.1 5 Sur 11 Sudoeste 0 -- -- 53
2019-09-23 11:00:00 17.6 7 Nordeste 13 Nordeste 0 -- -- 64
2019-09-23 10:00:00 14.3 4 Nordeste 15 Nordeste 0 -- -- 79
2019-09-23 09:00:00 10.5 6 Nordeste 13 Nordeste 0 -- -- 90
2019-09-23 08:00:00 9.8 6 Norte 11 Norte 0 -- -- 91
2019-09-23 07:00:00 10 4 Norte 13 Nordeste 0 -- -- 90
2019-09-23 06:00:00 9.8 4 Nordeste 10 Norte 0 -- -- 90
2019-09-23 05:00:00 9.8 5 Norte 8 Norte 0 -- -- 90
2019-09-23 04:00:00 10.6 3 Norte 6 Norte -- -- -- 87
2019-09-23 03:00:00 11.4 3 Noroeste 8 Norte 0 -- -- 85
2019-09-23 02:00:00 12.3 3 Norte 6 Noroeste 0 -- -- 82
2019-09-23 01:00:00 13.7 0 Calma 19 Oeste 0 -- -- 74
2019-09-23 00:00:00 15.8 3 Norte 20 Noroeste 0 -- -- 66
2019-09-22 23:00:00 13.5 4 Nordeste 13 Norte 0 -- -- 76
2019-09-22 22:00:00 15.1 0 Calma 8 Noroeste 0 -- -- 77
2019-09-22 21:00:00 17 3 Noroeste 13 Oeste 0 -- -- 67
2019-09-22 20:00:00 19.8 12 Sudoeste 19 Sudoeste 0 -- -- 53
2019-09-22 19:00:00 20.3 5 Sudoeste 14 Sudoeste 0 -- -- 56
2019-09-22 18:00:00 20.8 10 Sudoeste 26 Sur 0 -- -- 57
2019-09-22 17:00:00 21.4 9 Sudoeste 23 Sur 0 -- -- 59
2019-09-22 16:00:00 20 9 Sudoeste 19 Sudoeste 0 -- -- 64
2019-09-22 15:00:00 20.2 11 Sudoeste 19 Sur 0 -- -- 62
2019-09-22 14:00:00 19.7 8 Sudoeste 17 Sur 0 -- -- 65
2019-09-22 13:00:00 19.8 10 Sur 18 Sur 0 -- -- 67
2019-09-22 12:00:00 18.1 10 Sur 15 Sur 0.2 -- -- 71
2019-09-22 11:00:00 16.2 0 Calma 5 Norte 0 -- -- 77
2019-09-22 10:00:00 14.8 0 Calma 6 Norte 0 -- -- 86
2019-09-22 09:00:00 10.6 3 Norte 7 Nordeste 0 -- -- 94
2019-09-22 08:00:00 11.1 0 Calma 10 Noroeste 0 -- -- 92
2019-09-22 07:00:00 12.3 3 Norte 16 Norte 0 -- -- 87
2019-09-22 06:00:00 14 10 Noroeste 25 Norte 0 -- -- 79
2019-09-22 05:00:00 14 7 Noroeste 31 Noroeste 0 -- -- 82
2019-09-22 04:00:00 16.5 6 Sudoeste 23 Noroeste 0 -- -- 93
2019-09-22 03:00:00 16.9 3 Sudoeste 17 Sudoeste 0 -- -- 94
2019-09-22 02:00:00 17 9 Sudoeste 26 Oeste 0.2 -- -- 94
2019-09-22 01:00:00 17 12 Sudoeste 23 Sudoeste 2.6 -- -- 95
2019-09-22 00:00:00 17 5 Sur 15 Sur 6.8 -- -- 94
2019-09-21 23:00:00 17.4 10 Oeste 32 Sudeste 7.8 -- -- 93
2019-09-21 22:00:00 17.3 8 Sudeste 25 Sur 1.8 -- -- 93
2019-09-21 21:00:00 17.4 0 Calma 33 Sudeste 1.8 -- -- 93
2019-09-21 20:00:00 16.8 6 Sudeste 22 Sudeste 0.6 -- -- 92
2019-09-21 19:00:00 17.1 4 Sur 14 Sudeste 0.8 -- -- 92
2019-09-21 18:00:00 16.9 6 Sur 14 Sudeste 0.6 -- -- 93
2019-09-21 17:00:00 16.2 2 Norte 14 Sudoeste 1.2 -- -- 93
2019-09-21 16:00:00 15.7 4 Norte 15 Noroeste 1.4 -- -- 92
2019-09-21 15:00:00 15.8 8 Oeste 26 Sudoeste 0.2 -- -- 89
2019-09-21 14:00:00 16.2 9 Oeste 20 Oeste 0.6 -- -- 92
2019-09-21 13:00:00 16.3 5 Sudoeste 19 Sudoeste 1.4 -- -- 90
2019-09-21 12:00:00 16.3 3 Sudoeste 30 Este 3.2 -- -- 91
2019-09-21 11:00:00 15.8 7 Nordeste 26 Nordeste 1.6 -- -- 89
2019-09-21 10:00:00 16.2 2 Sur 12 Sudeste 2.8 -- -- 90
2019-09-21 09:00:00 16.3 0 Calma 6 Sur 2.8 -- -- 88
2019-09-21 08:00:00 16.9 2 Norte 14 Sur 0 -- -- 79
2019-09-21 07:00:00 16.9 4 Sudoeste 12 Sur 0 -- -- 73
2019-09-21 06:00:00 16.2 3 Nordeste 7 Norte 0 -- -- 75
2019-09-21 05:00:00 16.3 0 Calma 0 Calma 0 -- -- 74
2019-09-21 04:00:00 16.1 0 Calma -- -- 0 -- -- 73
2019-09-21 03:00:00 15.8 0 Calma -- -- 0 -- -- 73
2019-09-21 02:00:00 15.4 0 Calma 3 Noroeste 0 -- -- 73
2019-09-21 01:00:00 15 0 Calma 5 Noroeste 0 -- -- 73
2019-09-21 00:00:00 16.7 3 Noroeste 5 Noroeste 0 -- -- 68
2019-09-20 23:00:00 19.5 0 Calma 9 Sur 0 -- -- 60
2019-09-20 22:00:00 20.7 5 Sur 15 Sudoeste 0 -- -- 57
2019-09-20 21:00:00 21.7 5 Sur 14 Sur 0 -- -- 56
2019-09-20 20:00:00 22.4 4 Sur 20 Oeste 0 -- -- 56
2019-09-20 19:00:00 23.6 15 Sudoeste 30 Oeste 0 -- -- 51
2019-09-20 18:00:00 25.4 14 Sur 30 Sur 0 -- -- 42
2019-09-20 17:00:00 26.3 18 Sur 33 Sur 0 -- -- 38
2019-09-20 16:00:00 26.8 17 Sur 33 Sudeste 0 -- -- 39
2019-09-20 15:00:00 26.7 15 Sur 33 Sur 0 -- -- 40
2019-09-20 14:00:00 26.9 17 Sur 34 Sudoeste 0 -- -- 40
2019-09-20 13:00:00 25 13 Sur 31 Sudeste 0 -- -- 46
2019-09-20 12:00:00 25.1 13 Sur 29 Sur 0 -- -- 47
2019-09-20 11:00:00 22.3 9 Sur 15 Sur 0 -- -- 55
2019-09-20 10:00:00 18.1 0 Calma 8 Este 0 -- -- 71
2019-09-20 09:00:00 15.4 0 Calma 6 Norte 0 -- -- 76
2019-09-20 08:00:00 15.3 0 Calma 8 Nordeste 0 -- -- 73
2019-09-20 07:00:00 15 3 Noroeste 9 Noroeste 0 -- -- 74
2019-09-20 06:00:00 15.9 4 Norte 7 Norte 0 -- -- 71
2019-09-20 05:00:00 17.3 3 Norte 9 Nordeste 0 -- -- 66
2019-09-20 04:00:00 18.1 5 Norte 10 Norte 0 -- -- 64
2019-09-20 03:00:00 18.8 2 Nordeste 12 Nordeste 0 -- -- 60
2019-09-20 02:00:00 19.4 7 Norte 14 Norte 0 -- -- 59
2019-09-20 01:00:00 17.4 3 Norte 8 Noroeste 0 -- -- 63
2019-09-20 00:00:00 18.5 0 Calma 5 Noroeste 0 -- -- 59
2019-09-19 23:00:00 19.9 0 Calma 6 Nordeste 0 -- -- 54
2019-09-19 22:00:00 21.1 0 Calma 5 Norte 0 -- -- 50
2019-09-19 21:00:00 23.8 0 Calma 9 Sur 0 -- -- 44
2019-09-19 20:00:00 27.8 8 Sur 19 Sudoeste 0 -- -- 35
2019-09-19 19:00:00 29.5 8 Sudoeste 19 Sur 0 -- -- 34
2019-09-19 18:00:00 30.2 12 Sur 25 Sur 0 -- -- 32
2019-09-19 17:00:00 29.8 13 Sur 23 Sudeste 0 -- -- 30
2019-09-19 16:00:00 30 7 Este 25 Sur 0 -- -- 32
2019-09-19 15:00:00 30.7 10 Sur 23 Sudoeste 0 -- -- 34
2019-09-19 14:00:00 29.7 12 Sudoeste 22 Sudoeste 0 -- -- 37
2019-09-19 13:00:00 28 8 Sudoeste 21 Sudoeste 0 -- -- 39
2019-09-19 12:00:00 27 8 Sur 14 Sur 0 -- -- 42
2019-09-19 11:00:00 24.1 4 Nordeste 15 Nordeste 0 -- -- 49
2019-09-19 10:00:00 19.7 6 Nordeste 11 Nordeste 0 -- -- 62
2019-09-19 09:00:00 16.4 4 Norte 11 Nordeste 0 -- -- 72
2019-09-19 08:00:00 15.5 3 Norte 8 Norte 0 -- -- 73
2019-09-19 07:00:00 15.7 4 Norte 9 Norte 0 -- -- 71
2019-09-19 06:00:00 16.8 4 Nordeste 13 Nordeste 0 -- -- 69
2019-09-19 05:00:00 16.7 6 Norte 11 Nordeste 0 -- -- 69
2019-09-19 04:00:00 16.2 4 Norte 7 Norte 0 -- -- 69
2019-09-19 03:00:00 16.6 3 Norte 9 Noroeste 0 -- -- 69
2019-09-19 02:00:00 17.9 2 Sur 8 Nordeste 0 -- -- 66
2019-09-19 01:00:00 18.8 5 Nordeste 8 Nordeste 0 -- -- 63
2019-09-19 00:00:00 19.6 4 Nordeste 8 Nordeste 0 -- -- 63
2019-09-18 23:00:00 19.7 2 Norte 10 Norte 0 -- -- 61
2019-09-18 22:00:00 20.2 0 Calma 4 Noroeste 0 -- -- 58
2019-09-18 21:00:00 22.9 3 Norte 9 Noroeste 0 -- -- 50
2019-09-18 20:00:00 26.5 0 Calma 11 Oeste 0 -- -- 42
2019-09-18 19:00:00 29.8 8 Sudoeste 18 Sudoeste 0 -- -- 35
2019-09-18 18:00:00 30.2 4 Sudoeste 20 Sudoeste 0 -- -- 35
2019-09-18 17:00:00 30.7 10 Sudoeste 19 Sudoeste 0 -- -- 34
2019-09-18 16:00:00 30.2 8 Sur 40 Sudeste 0 -- -- 36
2019-09-18 15:00:00 29.5 10 Sudeste 20 Sudeste 0 -- -- 37
2019-09-18 14:00:00 28.8 10 Sur 20 Sudeste 0 -- -- 37
2019-09-18 13:00:00 27 5 Sudeste 15 Sudoeste 0 -- -- 37
2019-09-18 12:00:00 25.4 8 Sur 15 Oeste 0 -- -- 41
2019-09-18 11:00:00 21.6 6 Nordeste 15 Nordeste 0 -- -- 54
2019-09-18 10:00:00 18.1 4 Nordeste 14 Norte 0 -- -- 68
2019-09-18 09:00:00 13.2 6 Norte 12 Norte 0 -- -- 87
2019-09-18 08:00:00 11.9 5 Norte 9 Nordeste 0 -- -- 87
2019-09-18 07:00:00 12.1 3 Norte 6 Norte 0 -- -- 85
2019-09-18 06:00:00 12.4 4 Norte 9 Norte 0 -- -- 84
2019-09-18 05:00:00 14.1 3 Nordeste 15 Norte 0 -- -- 82
2019-09-18 04:00:00 14.9 9 Este 20 Nordeste 0 -- -- 82
2019-09-18 03:00:00 14.5 6 Norte 17 Norte 0 -- -- 85
2019-09-18 02:00:00 13.9 2 Norte 9 Noroeste 0 -- -- 84
2019-09-18 01:00:00 15.7 0 Calma 9 Noroeste 0 -- -- 80
2019-09-18 00:00:00 16.9 3 Norte 13 Nordeste 0 -- -- 78
2019-09-17 23:00:00 17.7 6 Norte 15 Noroeste 0 -- -- 73
2019-09-17 22:00:00 19 4 Norte 21 Norte 0 -- -- 65
2019-09-17 21:00:00 20 14 Nordeste 37 Norte 0 -- -- 56